sensor_id;sensor_type;location;lat;lon;timestamp;P1;durP1;ratioP1;P2;durP2;ratioP2
62332;SDS011;48624;49.812;8.562;2023-07-29T00:00:14;958.40;;;902.35;;
62332;SDS011;48624;49.812;8.562;2023-07-29T00:02:39;951.08;;;893.63;;
62332;SDS011;48624;49.812;8.562;2023-07-29T00:05:04;947.38;;;891.47;;
62332;SDS011;48624;49.812;8.562;2023-07-29T00:07:30;969.03;;;911.38;;
62332;SDS011;48624;49.812;8.562;2023-07-29T00:09:55;970.85;;;912.30;;
62332;SDS011;48624;49.812;8.562;2023-07-29T00:12:20;962.22;;;905.45;;
62332;SDS011;48624;49.812;8.562;2023-07-29T00:14:46;966.42;;;909.17;;
62332;SDS011;48624;49.812;8.562;2023-07-29T00:17:11;954.80;;;899.28;;
62332;SDS011;48624;49.812;8.562;2023-07-29T00:19:36;932.70;;;876.55;;
62332;SDS011;48624;49.812;8.562;2023-07-29T00:22:04;944.03;;;888.55;;
62332;SDS011;48624;49.812;8.562;2023-07-29T00:24:29;949.20;;;892.10;;
62332;SDS011;48624;49.812;8.562;2023-07-29T00:26:54;948.08;;;892.60;;
62332;SDS011;48624;49.812;8.562;2023-07-29T00:29:20;969.53;;;911.00;;
62332;SDS011;48624;49.812;8.562;2023-07-29T00:31:45;951.78;;;896.33;;
62332;SDS011;48624;49.812;8.562;2023-07-29T00:34:11;951.72;;;894.78;;
62332;SDS011;48624;49.812;8.562;2023-07-29T00:36:36;928.42;;;872.83;;
62332;SDS011;48624;49.812;8.562;2023-07-29T00:39:01;955.45;;;899.30;;
62332;SDS011;48624;49.812;8.562;2023-07-29T00:41:27;952.92;;;896.80;;
62332;SDS011;48624;49.812;8.562;2023-07-29T00:43:52;952.80;;;896.17;;
62332;SDS011;48624;49.812;8.562;2023-07-29T00:46:17;957.28;;;900.97;;
62332;SDS011;48624;49.812;8.562;2023-07-29T00:48:44;949.05;;;892.20;;
62332;SDS011;48624;49.812;8.562;2023-07-29T00:51:09;960.90;;;903.40;;
62332;SDS011;48624;49.812;8.562;2023-07-29T00:53:35;969.00;;;911.38;;
62332;SDS011;48624;49.812;8.562;2023-07-29T00:56:00;959.03;;;902.58;;
62332;SDS011;48624;49.812;8.562;2023-07-29T00:58:26;968.33;;;910.33;;
62332;SDS011;48624;49.812;8.562;2023-07-29T01:00:51;967.30;;;909.53;;
62332;SDS011;48624;49.812;8.562;2023-07-29T01:03:17;956.08;;;899.03;;
62332;SDS011;48624;49.812;8.562;2023-07-29T01:06:04;960.97;;;903.63;;
62332;SDS011;48624;49.812;8.562;2023-07-29T01:08:46;968.63;;;911.30;;
62332;SDS011;48624;49.812;8.562;2023-07-29T01:13:59;940.85;;;885.85;;
62332;SDS011;48624;49.812;8.562;2023-07-29T01:16:39;976.63;;;917.78;;
62332;SDS011;48624;49.812;8.562;2023-07-29T01:19:08;964.40;;;907.78;;
62332;SDS011;48624;49.812;8.562;2023-07-29T01:21:48;963.80;;;906.58;;
62332;SDS011;48624;49.812;8.562;2023-07-29T01:24:15;971.50;;;913.63;;
62332;SDS011;48624;49.812;8.562;2023-07-29T01:26:40;968.70;;;911.30;;
62332;SDS011;48624;49.812;8.562;2023-07-29T01:29:05;959.17;;;902.35;;
62332;SDS011;48624;49.812;8.562;2023-07-29T01:31:32;962.83;;;903.88;;
62332;SDS011;48624;49.812;8.562;2023-07-29T01:34:23;962.53;;;904.90;;
62332;SDS011;48624;49.812;8.562;2023-07-29T01:37:13;960.47;;;903.55;;
62332;SDS011;48624;49.812;8.562;2023-07-29T01:39:44;934.95;;;878.97;;
62332;SDS011;48624;49.812;8.562;2023-07-29T01:42:10;966.65;;;909.38;;
62332;SDS011;48624;49.812;8.562;2023-07-29T01:44:36;905.78;;;849.25;;
62332;SDS011;48624;49.812;8.562;2023-07-29T01:47:01;960.85;;;902.92;;
62332;SDS011;48624;49.812;8.562;2023-07-29T01:49:26;967.72;;;910.35;;
62332;SDS011;48624;49.812;8.562;2023-07-29T01:51:52;962.92;;;906.38;;
62332;SDS011;48624;49.812;8.562;2023-07-29T01:54:18;973.08;;;915.00;;
62332;SDS011;48624;49.812;8.562;2023-07-29T01:56:43;955.15;;;898.22;;
62332;SDS011;48624;49.812;8.562;2023-07-29T01:59:08;965.38;;;908.15;;
62332;SDS011;48624;49.812;8.562;2023-07-29T02:01:34;962.30;;;902.58;;
62332;SDS011;48624;49.812;8.562;2023-07-29T02:03:59;972.88;;;915.33;;
62332;SDS011;48624;49.812;8.562;2023-07-29T02:06:24;951.70;;;894.90;;
62332;SDS011;48624;49.812;8.562;2023-07-29T02:08:50;942.25;;;885.92;;
62332;SDS011;48624;49.812;8.562;2023-07-29T02:11:16;962.05;;;904.60;;
62332;SDS011;48624;49.812;8.562;2023-07-29T02:13:41;959.40;;;902.78;;
62332;SDS011;48624;49.812;8.562;2023-07-29T02:16:07;962.55;;;905.22;;
62332;SDS011;48624;49.812;8.562;2023-07-29T02:18:32;960.45;;;903.72;;
62332;SDS011;48624;49.812;8.562;2023-07-29T02:20:57;947.70;;;892.08;;
62332;SDS011;48624;49.812;8.562;2023-07-29T02:23:22;946.72;;;890.90;;
62332;SDS011;48624;49.812;8.562;2023-07-29T02:25:48;944.83;;;888.78;;
62332;SDS011;48624;49.812;8.562;2023-07-29T02:28:13;953.22;;;896.92;;
62332;SDS011;48624;49.812;8.562;2023-07-29T02:30:40;960.70;;;904.03;;
62332;SDS011;48624;49.812;8.562;2023-07-29T02:33:09;972.63;;;914.88;;
62332;SDS011;48624;49.812;8.562;2023-07-29T02:35:34;967.08;;;909.45;;
62332;SDS011;48624;49.812;8.562;2023-07-29T02:38:00;966.28;;;908.28;;
62332;SDS011;48624;49.812;8.562;2023-07-29T02:40:25;975.13;;;915.28;;
62332;SDS011;48624;49.812;8.562;2023-07-29T02:42:52;947.80;;;891.97;;
62332;SDS011;48624;49.812;8.562;2023-07-29T02:45:18;949.72;;;894.08;;
62332;SDS011;48624;49.812;8.562;2023-07-29T02:47:43;958.72;;;901.60;;
62332;SDS011;48624;49.812;8.562;2023-07-29T02:50:09;953.38;;;896.00;;
62332;SDS011;48624;49.812;8.562;2023-07-29T02:52:34;964.17;;;906.22;;
62332;SDS011;48624;49.812;8.562;2023-07-29T02:54:59;967.53;;;909.58;;
62332;SDS011;48624;49.812;8.562;2023-07-29T02:57:25;956.90;;;899.97;;
62332;SDS011;48624;49.812;8.562;2023-07-29T02:59:50;958.85;;;902.47;;
62332;SDS011;48624;49.812;8.562;2023-07-29T03:02:15;947.83;;;891.13;;
62332;SDS011;48624;49.812;8.562;2023-07-29T03:04:41;956.25;;;898.42;;
62332;SDS011;48624;49.812;8.562;2023-07-29T03:07:06;947.47;;;891.17;;
62332;SDS011;48624;49.812;8.562;2023-07-29T03:09:31;964.13;;;906.85;;
62332;SDS011;48624;49.812;8.562;2023-07-29T03:11:58;948.85;;;893.15;;
62332;SDS011;48624;49.812;8.562;2023-07-29T03:14:24;936.88;;;881.03;;
62332;SDS011;48624;49.812;8.562;2023-07-29T03:16:49;937.17;;;882.35;;
62332;SDS011;48624;49.812;8.562;2023-07-29T03:19:14;966.90;;;907.13;;
62332;SDS011;48624;49.812;8.562;2023-07-29T03:21:40;940.03;;;884.75;;
62332;SDS011;48624;49.812;8.562;2023-07-29T03:24:05;943.63;;;887.88;;
62332;SDS011;48624;49.812;8.562;2023-07-29T03:26:31;914.25;;;860.78;;
62332;SDS011;48624;49.812;8.562;2023-07-29T03:28:57;948.67;;;892.63;;
62332;SDS011;48624;49.812;8.562;2023-07-29T03:31:22;953.95;;;897.72;;
62332;SDS011;48624;49.812;8.562;2023-07-29T03:33:47;950.30;;;894.03;;
62332;SDS011;48624;49.812;8.562;2023-07-29T03:36:13;944.60;;;888.58;;
62332;SDS011;48624;49.812;8.562;2023-07-29T03:38:39;956.20;;;899.08;;
62332;SDS011;48624;49.812;8.562;2023-07-29T03:41:06;946.25;;;889.00;;
62332;SDS011;48624;49.812;8.562;2023-07-29T03:43:33;959.35;;;902.70;;
62332;SDS011;48624;49.812;8.562;2023-07-29T03:45:59;946.17;;;890.50;;
62332;SDS011;48624;49.812;8.562;2023-07-29T03:48:25;962.75;;;905.63;;
62332;SDS011;48624;49.812;8.562;2023-07-29T03:50:50;950.05;;;893.45;;
62332;SDS011;48624;49.812;8.562;2023-07-29T03:53:15;959.63;;;901.63;;
62332;SDS011;48624;49.812;8.562;2023-07-29T03:55:42;952.70;;;896.15;;
62332;SDS011;48624;49.812;8.562;2023-07-29T03:58:07;966.67;;;909.85;;
62332;SDS011;48624;49.812;8.562;2023-07-29T04:00:32;952.90;;;897.42;;
62332;SDS011;48624;49.812;8.562;2023-07-29T04:02:58;952.60;;;896.67;;
62332;SDS011;48624;49.812;8.562;2023-07-29T04:05:23;947.58;;;891.35;;
62332;SDS011;48624;49.812;8.562;2023-07-29T04:07:49;953.65;;;897.95;;
62332;SDS011;48624;49.812;8.562;2023-07-29T04:10:14;952.17;;;896.30;;
62332;SDS011;48624;49.812;8.562;2023-07-29T04:12:39;948.13;;;892.00;;
62332;SDS011;48624;49.812;8.562;2023-07-29T04:15:05;946.08;;;890.80;;
62332;SDS011;48624;49.812;8.562;2023-07-29T04:17:30;944.08;;;888.13;;
62332;SDS011;48624;49.812;8.562;2023-07-29T04:19:56;947.55;;;891.28;;
62332;SDS011;48624;49.812;8.562;2023-07-29T04:22:21;951.47;;;895.30;;
62332;SDS011;48624;49.812;8.562;2023-07-29T04:24:46;927.30;;;872.50;;
62332;SDS011;48624;49.812;8.562;2023-07-29T04:27:12;948.08;;;892.85;;
62332;SDS011;48624;49.812;8.562;2023-07-29T04:29:37;945.05;;;890.40;;
62332;SDS011;48624;49.812;8.562;2023-07-29T04:32:03;940.58;;;884.75;;
62332;SDS011;48624;49.812;8.562;2023-07-29T04:34:29;946.13;;;891.03;;
62332;SDS011;48624;49.812;8.562;2023-07-29T04:36:56;945.90;;;891.30;;
62332;SDS011;48624;49.812;8.562;2023-07-29T04:39:21;946.92;;;889.80;;
62332;SDS011;48624;49.812;8.562;2023-07-29T04:41:46;935.50;;;880.67;;
62332;SDS011;48624;49.812;8.562;2023-07-29T04:44:11;933.85;;;879.67;;
62332;SDS011;48624;49.812;8.562;2023-07-29T04:46:37;929.60;;;875.42;;
62332;SDS011;48624;49.812;8.562;2023-07-29T04:49:03;930.20;;;876.15;;
62332;SDS011;48624;49.812;8.562;2023-07-29T04:51:29;935.53;;;880.40;;
62332;SDS011;48624;49.812;8.562;2023-07-29T04:53:55;936.42;;;882.08;;
62332;SDS011;48624;49.812;8.562;2023-07-29T04:56:20;938.08;;;883.38;;
62332;SDS011;48624;49.812;8.562;2023-07-29T04:58:45;928.47;;;873.65;;
62332;SDS011;48624;49.812;8.562;2023-07-29T05:01:10;926.97;;;872.58;;
62332;SDS011;48624;49.812;8.562;2023-07-29T05:03:36;926.08;;;872.30;;
62332;SDS011;48624;49.812;8.562;2023-07-29T05:06:02;923.97;;;870.38;;
62332;SDS011;48624;49.812;8.562;2023-07-29T05:08:27;936.80;;;882.78;;
62332;SDS011;48624;49.812;8.562;2023-07-29T05:10:54;955.90;;;899.70;;
62332;SDS011;48624;49.812;8.562;2023-07-29T05:13:19;920.22;;;866.92;;
62332;SDS011;48624;49.812;8.562;2023-07-29T05:15:46;938.50;;;883.20;;
62332;SDS011;48624;49.812;8.562;2023-07-29T05:18:12;918.88;;;865.72;;
62332;SDS011;48624;49.812;8.562;2023-07-29T05:20:38;923.15;;;868.50;;
62332;SDS011;48624;49.812;8.562;2023-07-29T05:23:03;932.08;;;877.47;;
62332;SDS011;48624;49.812;8.562;2023-07-29T05:25:28;938.95;;;883.88;;
62332;SDS011;48624;49.812;8.562;2023-07-29T05:27:54;939.17;;;883.17;;
62332;SDS011;48624;49.812;8.562;2023-07-29T05:30:19;951.85;;;892.72;;
62332;SDS011;48624;49.812;8.562;2023-07-29T05:32:44;926.03;;;869.60;;
62332;SDS011;48624;49.812;8.562;2023-07-29T05:35:10;958.63;;;898.63;;
62332;SDS011;48624;49.812;8.562;2023-07-29T05:37:38;843.00;;;793.45;;
62332;SDS011;48624;49.812;8.562;2023-07-29T05:40:05;820.38;;;771.50;;
62332;SDS011;48624;49.812;8.562;2023-07-29T05:42:32;941.97;;;886.03;;
62332;SDS011;48624;49.812;8.562;2023-07-29T05:44:57;944.75;;;888.13;;
62332;SDS011;48624;49.812;8.562;2023-07-29T05:47:22;951.17;;;895.40;;
62332;SDS011;48624;49.812;8.562;2023-07-29T05:49:48;943.20;;;887.85;;
62332;SDS011;48624;49.812;8.562;2023-07-29T05:52:13;926.20;;;870.38;;
62332;SDS011;48624;49.812;8.562;2023-07-29T05:54:38;938.47;;;882.60;;
62332;SDS011;48624;49.812;8.562;2023-07-29T05:57:04;952.83;;;895.30;;
62332;SDS011;48624;49.812;8.562;2023-07-29T05:59:29;950.25;;;893.60;;
62332;SDS011;48624;49.812;8.562;2023-07-29T06:01:55;943.63;;;887.95;;
62332;SDS011;48624;49.812;8.562;2023-07-29T06:04:20;925.35;;;870.80;;
62332;SDS011;48624;49.812;8.562;2023-07-29T06:06:45;920.95;;;865.92;;
62332;SDS011;48624;49.812;8.562;2023-07-29T06:09:11;951.75;;;895.90;;
62332;SDS011;48624;49.812;8.562;2023-07-29T06:11:36;903.20;;;850.35;;
62332;SDS011;48624;49.812;8.562;2023-07-29T06:14:01;880.15;;;828.45;;
62332;SDS011;48624;49.812;8.562;2023-07-29T06:16:26;940.17;;;884.72;;
62332;SDS011;48624;49.812;8.562;2023-07-29T06:18:52;949.95;;;893.90;;
62332;SDS011;48624;49.812;8.562;2023-07-29T06:21:17;947.83;;;892.25;;
62332;SDS011;48624;49.812;8.562;2023-07-29T06:23:45;949.20;;;892.80;;
62332;SDS011;48624;49.812;8.562;2023-07-29T06:26:11;937.67;;;882.53;;
62332;SDS011;48624;49.812;8.562;2023-07-29T06:28:36;948.60;;;886.38;;
62332;SDS011;48624;49.812;8.562;2023-07-29T06:31:02;917.45;;;863.88;;
62332;SDS011;48624;49.812;8.562;2023-07-29T06:33:27;932.00;;;875.15;;
62332;SDS011;48624;49.812;8.562;2023-07-29T06:35:52;937.03;;;881.03;;
62332;SDS011;48624;49.812;8.562;2023-07-29T06:38:18;944.47;;;889.28;;
62332;SDS011;48624;49.812;8.562;2023-07-29T06:40:46;935.83;;;881.05;;
62332;SDS011;48624;49.812;8.562;2023-07-29T06:43:12;942.47;;;887.53;;
62332;SDS011;48624;49.812;8.562;2023-07-29T06:45:38;939.90;;;885.13;;
62332;SDS011;48624;49.812;8.562;2023-07-29T06:48:03;955.92;;;898.85;;
62332;SDS011;48624;49.812;8.562;2023-07-29T06:50:29;936.72;;;881.35;;
62332;SDS011;48624;49.812;8.562;2023-07-29T06:52:54;944.35;;;888.90;;
62332;SDS011;48624;49.812;8.562;2023-07-29T06:55:19;955.22;;;898.10;;
62332;SDS011;48624;49.812;8.562;2023-07-29T06:57:44;945.55;;;885.90;;
62332;SDS011;48624;49.812;8.562;2023-07-29T07:00:10;975.10;;;914.88;;
62332;SDS011;48624;49.812;8.562;2023-07-29T07:02:35;941.40;;;886.03;;
62332;SDS011;48624;49.812;8.562;2023-07-29T07:05:01;940.33;;;885.20;;
62332;SDS011;48624;49.812;8.562;2023-07-29T07:07:26;942.75;;;887.72;;
62332;SDS011;48624;49.812;8.562;2023-07-29T07:09:51;933.10;;;878.55;;
62332;SDS011;48624;49.812;8.562;2023-07-29T07:12:17;941.45;;;884.70;;
62332;SDS011;48624;49.812;8.562;2023-07-29T07:14:42;939.00;;;883.55;;
62332;SDS011;48624;49.812;8.562;2023-07-29T07:17:08;943.55;;;888.22;;
62332;SDS011;48624;49.812;8.562;2023-07-29T07:19:33;958.78;;;902.03;;
62332;SDS011;48624;49.812;8.562;2023-07-29T07:21:58;944.25;;;889.05;;
62332;SDS011;48624;49.812;8.562;2023-07-29T07:24:23;959.03;;;902.30;;
62332;SDS011;48624;49.812;8.562;2023-07-29T07:26:49;941.13;;;885.58;;
62332;SDS011;48624;49.812;8.562;2023-07-29T07:29:14;939.90;;;885.47;;
62332;SDS011;48624;49.812;8.562;2023-07-29T07:31:39;946.88;;;892.00;;
62332;SDS011;48624;49.812;8.562;2023-07-29T07:34:05;931.50;;;877.92;;
62332;SDS011;48624;49.812;8.562;2023-07-29T07:36:30;922.17;;;868.28;;
62332;SDS011;48624;49.812;8.562;2023-07-29T07:38:56;927.83;;;873.90;;
62332;SDS011;48624;49.812;8.562;2023-07-29T07:41:21;928.88;;;874.33;;
62332;SDS011;48624;49.812;8.562;2023-07-29T07:43:47;936.47;;;881.67;;
62332;SDS011;48624;49.812;8.562;2023-07-29T07:46:12;924.60;;;870.38;;
62332;SDS011;48624;49.812;8.562;2023-07-29T07:48:38;937.67;;;883.85;;
62332;SDS011;48624;49.812;8.562;2023-07-29T07:51:10;931.05;;;876.92;;
62332;SDS011;48624;49.812;8.562;2023-07-29T07:53:36;941.05;;;886.13;;
62332;SDS011;48624;49.812;8.562;2023-07-29T07:56:01;937.78;;;883.70;;
62332;SDS011;48624;49.812;8.562;2023-07-29T07:58:27;944.95;;;890.22;;
62332;SDS011;48624;49.812;8.562;2023-07-29T08:00:52;945.90;;;890.55;;
62332;SDS011;48624;49.812;8.562;2023-07-29T08:03:26;937.92;;;883.20;;
62332;SDS011;48624;49.812;8.562;2023-07-29T08:05:51;948.58;;;893.17;;
62332;SDS011;48624;49.812;8.562;2023-07-29T08:08:16;941.10;;;885.55;;
62332;SDS011;48624;49.812;8.562;2023-07-29T08:10:41;940.83;;;885.30;;
62332;SDS011;48624;49.812;8.562;2023-07-29T08:13:07;933.85;;;878.92;;
62332;SDS011;48624;49.812;8.562;2023-07-29T08:15:32;949.40;;;894.15;;
62332;SDS011;48624;49.812;8.562;2023-07-29T08:17:58;935.80;;;880.63;;
62332;SDS011;48624;49.812;8.562;2023-07-29T08:20:23;961.65;;;905.75;;
62332;SDS011;48624;49.812;8.562;2023-07-29T08:22:48;948.20;;;892.22;;
62332;SDS011;48624;49.812;8.562;2023-07-29T08:25:14;949.03;;;892.53;;
62332;SDS011;48624;49.812;8.562;2023-07-29T08:27:39;955.90;;;898.67;;
62332;SDS011;48624;49.812;8.562;2023-07-29T08:30:04;947.10;;;890.55;;
62332;SDS011;48624;49.812;8.562;2023-07-29T08:32:30;954.40;;;898.03;;
62332;SDS011;48624;49.812;8.562;2023-07-29T08:34:56;946.60;;;890.67;;
62332;SDS011;48624;49.812;8.562;2023-07-29T08:37:21;950.55;;;894.53;;
62332;SDS011;48624;49.812;8.562;2023-07-29T08:39:46;950.30;;;894.72;;
62332;SDS011;48624;49.812;8.562;2023-07-29T08:42:11;955.10;;;898.78;;
62332;SDS011;48624;49.812;8.562;2023-07-29T08:44:41;960.63;;;902.15;;
62332;SDS011;48624;49.812;8.562;2023-07-29T08:47:07;937.60;;;881.95;;
62332;SDS011;48624;49.812;8.562;2023-07-29T08:49:33;928.95;;;872.60;;
62332;SDS011;48624;49.812;8.562;2023-07-29T08:51:59;959.95;;;902.72;;
62332;SDS011;48624;49.812;8.562;2023-07-29T08:54:24;965.00;;;906.30;;
62332;SDS011;48624;49.812;8.562;2023-07-29T08:56:50;950.72;;;893.25;;
62332;SDS011;48624;49.812;8.562;2023-07-29T08:59:16;955.75;;;898.67;;
62332;SDS011;48624;49.812;8.562;2023-07-29T09:01:42;963.78;;;906.13;;
62332;SDS011;48624;49.812;8.562;2023-07-29T09:04:08;962.17;;;905.17;;
62332;SDS011;48624;49.812;8.562;2023-07-29T09:06:34;956.47;;;899.35;;
62332;SDS011;48624;49.812;8.562;2023-07-29T09:09:00;937.08;;;882.53;;
62332;SDS011;48624;49.812;8.562;2023-07-29T09:11:26;977.67;;;919.03;;
62332;SDS011;48624;49.812;8.562;2023-07-29T09:13:52;962.67;;;904.20;;
62332;SDS011;48624;49.812;8.562;2023-07-29T09:16:18;943.30;;;887.65;;
62332;SDS011;48624;49.812;8.562;2023-07-29T09:18:45;954.45;;;896.97;;
62332;SDS011;48624;49.812;8.562;2023-07-29T09:21:12;935.67;;;881.28;;
62332;SDS011;48624;49.812;8.562;2023-07-29T09:23:40;919.25;;;865.53;;
62332;SDS011;48624;49.812;8.562;2023-07-29T09:26:07;878.90;;;829.58;;
62332;SDS011;48624;49.812;8.562;2023-07-29T09:28:33;891.95;;;841.38;;
62332;SDS011;48624;49.812;8.562;2023-07-29T09:31:00;930.58;;;875.90;;
62332;SDS011;48624;49.812;8.562;2023-07-29T09:33:25;900.67;;;848.75;;
62332;SDS011;48624;49.812;8.562;2023-07-29T09:35:51;920.15;;;866.88;;
62332;SDS011;48624;49.812;8.562;2023-07-29T09:38:17;915.85;;;863.53;;
62332;SDS011;48624;49.812;8.562;2023-07-29T09:40:42;847.63;;;801.20;;
62332;SDS011;48624;49.812;8.562;2023-07-29T09:43:10;806.60;;;763.13;;
62332;SDS011;48624;49.812;8.562;2023-07-29T09:45:36;729.03;;;693.25;;
62332;SDS011;48624;49.812;8.562;2023-07-29T09:48:02;704.75;;;671.58;;
62332;SDS011;48624;49.812;8.562;2023-07-29T09:50:30;647.45;;;619.35;;
62332;SDS011;48624;49.812;8.562;2023-07-29T09:52:56;670.58;;;640.28;;
62332;SDS011;48624;49.812;8.562;2023-07-29T09:55:24;695.13;;;662.72;;
62332;SDS011;48624;49.812;8.562;2023-07-29T09:58:08;656.17;;;627.20;;
62332;SDS011;48624;49.812;8.562;2023-07-29T10:00:33;572.42;;;548.63;;
62332;SDS011;48624;49.812;8.562;2023-07-29T10:03:00;540.05;;;518.25;;
62332;SDS011;48624;49.812;8.562;2023-07-29T10:05:26;546.08;;;524.13;;
62332;SDS011;48624;49.812;8.562;2023-07-29T10:07:52;420.48;;;405.38;;
62332;SDS011;48624;49.812;8.562;2023-07-29T10:10:19;454.05;;;436.92;;
62332;SDS011;48624;49.812;8.562;2023-07-29T10:12:45;505.20;;;485.08;;
62332;SDS011;48624;49.812;8.562;2023-07-29T10:15:11;430.80;;;415.05;;
62332;SDS011;48624;49.812;8.562;2023-07-29T10:17:37;531.28;;;509.70;;
62332;SDS011;48624;49.812;8.562;2023-07-29T10:20:07;491.35;;;472.35;;
62332;SDS011;48624;49.812;8.562;2023-07-29T10:22:39;484.75;;;465.90;;
62332;SDS011;48624;49.812;8.562;2023-07-29T10:25:18;475.17;;;456.70;;
62332;SDS011;48624;49.812;8.562;2023-07-29T10:30:30;370.52;;;357.33;;
62332;SDS011;48624;49.812;8.562;2023-07-29T10:32:55;418.08;;;402.33;;
62332;SDS011;48624;49.812;8.562;2023-07-29T10:35:23;367.77;;;354.55;;
62332;SDS011;48624;49.812;8.562;2023-07-29T10:37:53;270.75;;;261.30;;
62332;SDS011;48624;49.812;8.562;2023-07-29T10:40:19;232.40;;;224.40;;
62332;SDS011;48624;49.812;8.562;2023-07-29T10:43:03;219.20;;;211.85;;
62332;SDS011;48624;49.812;8.562;2023-07-29T10:45:41;129.57;;;125.22;;
62332;SDS011;48624;49.812;8.562;2023-07-29T10:48:10;88.57;;;83.75;;
62332;SDS011;48624;49.812;8.562;2023-07-29T10:50:37;59.97;;;57.40;;
62332;SDS011;48624;49.812;8.562;2023-07-29T10:53:04;14.77;;;14.27;;
62332;SDS011;48624;49.812;8.562;2023-07-29T10:55:33;11.38;;;10.95;;
62332;SDS011;48624;49.812;8.562;2023-07-29T10:58:05;10.73;;;10.32;;
62332;SDS011;48624;49.812;8.562;2023-07-29T11:00:32;50.60;;;48.90;;
62332;SDS011;48624;49.812;8.562;2023-07-29T11:03:06;46.50;;;44.55;;
62332;SDS011;48624;49.812;8.562;2023-07-29T11:05:42;85.35;;;82.47;;
62332;SDS011;48624;49.812;8.562;2023-07-29T11:08:18;63.72;;;61.55;;
62332;SDS011;48624;49.812;8.562;2023-07-29T11:10:57;11.13;;;10.65;;
62332;SDS011;48624;49.812;8.562;2023-07-29T11:13:25;14.60;;;14.07;;
62332;SDS011;48624;49.812;8.562;2023-07-29T11:15:52;8.50;;;7.80;;
62332;SDS011;48624;49.812;8.562;2023-07-29T11:18:20;4.75;;;4.55;;
62332;SDS011;48624;49.812;8.562;2023-07-29T11:20:46;1.60;;;1.33;;
62332;SDS011;48624;49.812;8.562;2023-07-29T11:23:12;2.20;;;2.10;;
62332;SDS011;48624;49.812;8.562;2023-07-29T11:25:38;7.50;;;7.20;;
62332;SDS011;48624;49.812;8.562;2023-07-29T11:28:04;33.53;;;32.28;;
62332;SDS011;48624;49.812;8.562;2023-07-29T11:30:29;5.03;;;4.72;;
62332;SDS011;48624;49.812;8.562;2023-07-29T11:32:56;19.88;;;19.13;;
62332;SDS011;48624;49.812;8.562;2023-07-29T11:35:23;41.97;;;40.55;;
62332;SDS011;48624;49.812;8.562;2023-07-29T11:37:49;3.13;;;2.92;;
62332;SDS011;48624;49.812;8.562;2023-07-29T11:40:21;3.85;;;1.30;;
62332;SDS011;48624;49.812;8.562;2023-07-29T11:42:47;1.67;;;1.20;;
62332;SDS011;48624;49.812;8.562;2023-07-29T11:45:17;1.77;;;0.80;;
62332;SDS011;48624;49.812;8.562;2023-07-29T11:47:43;1.05;;;0.95;;
62332;SDS011;48624;49.812;8.562;2023-07-29T11:50:09;0.70;;;0.60;;
62332;SDS011;48624;49.812;8.562;2023-07-29T11:52:36;2.03;;;1.02;;
62332;SDS011;48624;49.812;8.562;2023-07-29T11:55:02;2.35;;;1.10;;
62332;SDS011;48624;49.812;8.562;2023-07-29T11:57:29;2.03;;;1.02;;
62332;SDS011;48624;49.812;8.562;2023-07-29T11:59:55;1.73;;;1.25;;
62332;SDS011;48624;49.812;8.562;2023-07-29T12:02:21;1.30;;;0.75;;
62332;SDS011;48624;49.812;8.562;2023-07-29T12:04:48;2.83;;;1.30;;
62332;SDS011;48624;49.812;8.562;2023-07-29T12:07:14;1.50;;;0.90;;
62332;SDS011;48624;49.812;8.562;2023-07-29T12:09:42;2.47;;;1.08;;
62332;SDS011;48624;49.812;8.562;2023-07-29T12:12:08;1.38;;;1.05;;
62332;SDS011;48624;49.812;8.562;2023-07-29T12:14:33;0.88;;;0.70;;
62332;SDS011;48624;49.812;8.562;2023-07-29T12:16:59;1.40;;;1.10;;
62332;SDS011;48624;49.812;8.562;2023-07-29T12:19:33;5.03;;;4.82;;
62332;SDS011;48624;49.812;8.562;2023-07-29T12:22:00;2.08;;;0.80;;
62332;SDS011;48624;49.812;8.562;2023-07-29T12:24:26;1.92;;;1.02;;
62332;SDS011;48624;49.812;8.562;2023-07-29T12:26:52;1.25;;;0.90;;
62332;SDS011;48624;49.812;8.562;2023-07-29T12:29:18;1.20;;;0.80;;
62332;SDS011;48624;49.812;8.562;2023-07-29T12:31:49;2.13;;;1.10;;
62332;SDS011;48624;49.812;8.562;2023-07-29T12:34:24;10.25;;;9.60;;
62332;SDS011;48624;49.812;8.562;2023-07-29T12:36:51;38.15;;;36.50;;
62332;SDS011;48624;49.812;8.562;2023-07-29T12:41:50;83.97;;;80.82;;
62332;SDS011;48624;49.812;8.562;2023-07-29T12:44:16;74.72;;;71.82;;
62332;SDS011;48624;49.812;8.562;2023-07-29T12:46:42;47.88;;;46.17;;
62332;SDS011;48624;49.812;8.562;2023-07-29T12:49:07;50.75;;;49.05;;
62332;SDS011;48624;49.812;8.562;2023-07-29T12:51:33;73.47;;;70.78;;
62332;SDS011;48624;49.812;8.562;2023-07-29T12:53:58;48.15;;;46.35;;
62332;SDS011;48624;49.812;8.562;2023-07-29T12:56:23;91.38;;;87.85;;
62332;SDS011;48624;49.812;8.562;2023-07-29T12:58:49;219.52;;;211.18;;
62332;SDS011;48624;49.812;8.562;2023-07-29T13:01:14;232.77;;;224.27;;
62332;SDS011;48624;49.812;8.562;2023-07-29T13:03:43;448.67;;;429.90;;
62332;SDS011;48624;49.812;8.562;2023-07-29T13:06:12;714.72;;;671.88;;
62332;SDS011;48624;49.812;8.562;2023-07-29T13:08:38;597.20;;;567.65;;
62332;SDS011;48624;49.812;8.562;2023-07-29T13:11:03;641.97;;;607.97;;
62332;SDS011;48624;49.812;8.562;2023-07-29T13:13:29;733.88;;;689.22;;
62332;SDS011;48624;49.812;8.562;2023-07-29T13:15:55;830.92;;;774.63;;
62332;SDS011;48624;49.812;8.562;2023-07-29T13:18:21;715.20;;;673.92;;
62332;SDS011;48624;49.812;8.562;2023-07-29T13:20:46;884.13;;;810.25;;
62332;SDS011;48624;49.812;8.562;2023-07-29T13:23:12;797.55;;;747.03;;
62332;SDS011;48624;49.812;8.562;2023-07-29T13:25:37;769.47;;;721.75;;
62332;SDS011;48624;49.812;8.562;2023-07-29T13:28:03;675.17;;;637.05;;
62332;SDS011;48624;49.812;8.562;2023-07-29T13:30:28;669.50;;;632.17;;
62332;SDS011;48624;49.812;8.562;2023-07-29T13:32:54;844.15;;;787.63;;
62332;SDS011;48624;49.812;8.562;2023-07-29T13:35:19;733.95;;;690.05;;
62332;SDS011;48624;49.812;8.562;2023-07-29T13:37:45;795.35;;;745.15;;
62332;SDS011;48624;49.812;8.562;2023-07-29T13:40:10;831.30;;;777.53;;
62332;SDS011;48624;49.812;8.562;2023-07-29T13:42:35;839.45;;;784.83;;
62332;SDS011;48624;49.812;8.562;2023-07-29T13:45:01;851.90;;;796.13;;
62332;SDS011;48624;49.812;8.562;2023-07-29T13:47:28;851.40;;;794.83;;
62332;SDS011;48624;49.812;8.562;2023-07-29T13:49:54;867.45;;;809.05;;
62332;SDS011;48624;49.812;8.562;2023-07-29T13:52:19;856.03;;;799.92;;
62332;SDS011;48624;49.812;8.562;2023-07-29T13:54:44;691.33;;;651.83;;
62332;SDS011;48624;49.812;8.562;2023-07-29T13:57:10;567.10;;;539.65;;
62332;SDS011;48624;49.812;8.562;2023-07-29T13:59:36;129.60;;;125.03;;
62332;SDS011;48624;49.812;8.562;2023-07-29T14:02:05;59.03;;;57.00;;
62332;SDS011;48624;49.812;8.562;2023-07-29T14:04:31;8.18;;;7.78;;
62332;SDS011;48624;49.812;8.562;2023-07-29T14:06:57;25.05;;;24.23;;